Limassol, Cyprus
Current Conditions -  °F | °C
As of 12:50 AM on Friday 19 Dec 2014 (Local Time) from LCRA Reporting Station
Rain Showers Rain Showers  
Wind Chill: 16°   Ceiling: 5000
Heat Index: 16°   Visibility: 6mi
Dew Point: 12°   Wind: 5mph
Humidity: 77%   Direction: 300°WNW
Pressure: 30"   Gusts: NA
Location:  34.76°N, 32.95°E
Report Text: LCRA 182150Z 30004KT 9999 -SHRA BKN050 OVC240 16/12 Q1016
Loading
Personal Weather Stations






























Interactive Weather Map New forecast layout! Learn more

10-Day Weather Forecast

Advertisements
Track Severe Weather on mobile